sensor_id;sensor_type;location;lat;lon;timestamp;temperature;humidity
22742;DHT22;11538;48.884;8.696;2023-05-13T00:01:34;14.10;99.90
22742;DHT22;11538;48.884;8.696;2023-05-13T00:04:04;14.00;99.90
22742;DHT22;11538;48.884;8.696;2023-05-13T00:06:34;14.00;99.90
22742;DHT22;11538;48.884;8.696;2023-05-13T00:09:03;13.90;99.90
22742;DHT22;11538;48.884;8.696;2023-05-13T00:11:33;13.90;99.90
22742;DHT22;11538;48.884;8.696;2023-05-13T00:13:59;13.80;99.90
22742;DHT22;11538;48.884;8.696;2023-05-13T00:16:26;13.80;99.90
22742;DHT22;11538;48.884;8.696;2023-05-13T00:18:55;13.70;99.90
22742;DHT22;11538;48.884;8.696;2023-05-13T00:21:22;13.60;99.90
22742;DHT22;11538;48.884;8.696;2023-05-13T00:23:49;13.50;99.90
22742;DHT22;11538;48.884;8.696;2023-05-13T00:26:16;13.50;99.90
22742;DHT22;11538;48.884;8.696;2023-05-13T00:28:43;13.40;99.90
22742;DHT22;11538;48.884;8.696;2023-05-13T00:31:13;13.40;99.90
22742;DHT22;11538;48.884;8.696;2023-05-13T00:33:41;13.30;99.90
22742;DHT22;11538;48.884;8.696;2023-05-13T00:36:26;13.30;99.90
22742;DHT22;11538;48.884;8.696;2023-05-13T00:38:54;13.20;99.90
22742;DHT22;11538;48.884;8.696;2023-05-13T00:41:21;13.20;99.90
22742;DHT22;11538;48.884;8.696;2023-05-13T00:43:48;13.20;99.90
22742;DHT22;11538;48.884;8.696;2023-05-13T00:46:19;13.10;99.90
22742;DHT22;11538;48.884;8.696;2023-05-13T00:48:46;13.10;99.90
22742;DHT22;11538;48.884;8.696;2023-05-13T00:51:15;13.00;99.90
22742;DHT22;11538;48.884;8.696;2023-05-13T00:53:43;12.90;99.90
22742;DHT22;11538;48.884;8.696;2023-05-13T00:56:10;12.90;99.90
22742;DHT22;11538;48.884;8.696;2023-05-13T00:58:37;12.90;99.90
22742;DHT22;11538;48.884;8.696;2023-05-13T01:06:51;12.80;99.90
22742;DHT22;11538;48.884;8.696;2023-05-13T01:09:39;12.80;99.90
22742;DHT22;11538;48.884;8.696;2023-05-13T01:12:15;12.80;99.90
22742;DHT22;11538;48.884;8.696;2023-05-13T01:17:48;12.70;99.90
22742;DHT22;11538;48.884;8.696;2023-05-13T01:20:22;12.70;99.90
22742;DHT22;11538;48.884;8.696;2023-05-13T01:22:51;12.60;99.90
22742;DHT22;11538;48.884;8.696;2023-05-13T01:25:18;12.50;99.90
22742;DHT22;11538;48.884;8.696;2023-05-13T01:27:48;12.50;99.90
22742;DHT22;11538;48.884;8.696;2023-05-13T01:30:16;12.40;99.90
22742;DHT22;11538;48.884;8.696;2023-05-13T01:32:43;12.40;99.90
22742;DHT22;11538;48.884;8.696;2023-05-13T01:35:12;12.30;99.90
22742;DHT22;11538;48.884;8.696;2023-05-13T01:37:41;12.30;99.90
22742;DHT22;11538;48.884;8.696;2023-05-13T01:40:09;12.30;99.90
22742;DHT22;11538;48.884;8.696;2023-05-13T01:43:00;12.20;99.90
22742;DHT22;11538;48.884;8.696;2023-05-13T01:45:28;12.10;99.90
22742;DHT22;11538;48.884;8.696;2023-05-13T01:47:55;12.10;99.90
22742;DHT22;11538;48.884;8.696;2023-05-13T01:50:22;12.10;99.90
22742;DHT22;11538;48.884;8.696;2023-05-13T01:52:49;12.10;99.90
22742;DHT22;11538;48.884;8.696;2023-05-13T01:55:18;12.10;99.90
22742;DHT22;11538;48.884;8.696;2023-05-13T01:57:44;12.10;99.90
22742;DHT22;11538;48.884;8.696;2023-05-13T02:00:15;12.10;99.90
22742;DHT22;11538;48.884;8.696;2023-05-13T02:02:49;12.10;99.90
22742;DHT22;11538;48.884;8.696;2023-05-13T02:05:16;12.00;99.90
22742;DHT22;11538;48.884;8.696;2023-05-13T02:07:43;12.00;99.90
22742;DHT22;11538;48.884;8.696;2023-05-13T02:10:10;11.90;99.90
22742;DHT22;11538;48.884;8.696;2023-05-13T02:12:37;11.90;99.90
22742;DHT22;11538;48.884;8.696;2023-05-13T02:15:09;11.80;99.90
22742;DHT22;11538;48.884;8.696;2023-05-13T02:17:36;11.80;99.90
22742;DHT22;11538;48.884;8.696;2023-05-13T02:20:04;11.80;99.90
22742;DHT22;11538;48.884;8.696;2023-05-13T02:22:31;11.80;99.90
22742;DHT22;11538;48.884;8.696;2023-05-13T02:24:58;11.70;99.90
22742;DHT22;11538;48.884;8.696;2023-05-13T02:27:25;11.80;99.90
22742;DHT22;11538;48.884;8.696;2023-05-13T02:29:54;11.70;99.90
22742;DHT22;11538;48.884;8.696;2023-05-13T02:32:21;11.70;99.90
22742;DHT22;11538;48.884;8.696;2023-05-13T02:34:48;11.70;99.90
22742;DHT22;11538;48.884;8.696;2023-05-13T02:37:15;11.60;99.90
22742;DHT22;11538;48.884;8.696;2023-05-13T02:39:45;11.60;99.90
22742;DHT22;11538;48.884;8.696;2023-05-13T02:42:12;11.60;99.90
22742;DHT22;11538;48.884;8.696;2023-05-13T02:44:39;11.50;99.90
22742;DHT22;11538;48.884;8.696;2023-05-13T02:47:06;11.50;99.90
22742;DHT22;11538;48.884;8.696;2023-05-13T02:49:32;11.50;99.90
22742;DHT22;11538;48.884;8.696;2023-05-13T02:52:01;11.50;99.90
22742;DHT22;11538;48.884;8.696;2023-05-13T02:54:28;11.40;99.90
22742;DHT22;11538;48.884;8.696;2023-05-13T02:56:55;11.40;99.90
22742;DHT22;11538;48.884;8.696;2023-05-13T02:59:22;11.40;99.90
22742;DHT22;11538;48.884;8.696;2023-05-13T03:01:49;11.40;99.90
22742;DHT22;11538;48.884;8.696;2023-05-13T03:04:16;11.50;99.90
22742;DHT22;11538;48.884;8.696;2023-05-13T03:06:46;11.50;99.90
22742;DHT22;11538;48.884;8.696;2023-05-13T03:09:12;11.40;99.90
22742;DHT22;11538;48.884;8.696;2023-05-13T03:11:40;11.40;99.90
22742;DHT22;11538;48.884;8.696;2023-05-13T03:14:07;11.30;99.90
22742;DHT22;11538;48.884;8.696;2023-05-13T03:16:37;11.30;99.90
22742;DHT22;11538;48.884;8.696;2023-05-13T03:19:04;11.20;99.90
22742;DHT22;11538;48.884;8.696;2023-05-13T03:21:34;11.20;99.90
22742;DHT22;11538;48.884;8.696;2023-05-13T03:24:00;11.10;99.90
22742;DHT22;11538;48.884;8.696;2023-05-13T03:26:27;11.10;99.90
22742;DHT22;11538;48.884;8.696;2023-05-13T03:28:54;11.10;99.90
22742;DHT22;11538;48.884;8.696;2023-05-13T03:31:22;11.20;99.90
22742;DHT22;11538;48.884;8.696;2023-05-13T03:33:49;11.10;99.90
22742;DHT22;11538;48.884;8.696;2023-05-13T03:36:18;11.10;99.90
22742;DHT22;11538;48.884;8.696;2023-05-13T03:38:45;11.00;99.90
22742;DHT22;11538;48.884;8.696;2023-05-13T03:41:11;11.00;99.90
22742;DHT22;11538;48.884;8.696;2023-05-13T03:43:38;10.90;99.90
22742;DHT22;11538;48.884;8.696;2023-05-13T03:46:06;10.90;99.90
22742;DHT22;11538;48.884;8.696;2023-05-13T03:48:33;10.90;99.90
22742;DHT22;11538;48.884;8.696;2023-05-13T03:51:00;10.80;99.90
22742;DHT22;11538;48.884;8.696;2023-05-13T03:53:27;10.90;99.90
22742;DHT22;11538;48.884;8.696;2023-05-13T03:55:54;10.90;99.90
22742;DHT22;11538;48.884;8.696;2023-05-13T03:58:21;10.90;99.90
22742;DHT22;11538;48.884;8.696;2023-05-13T04:00:48;10.90;99.90
22742;DHT22;11538;48.884;8.696;2023-05-13T04:03:15;10.90;99.90
22742;DHT22;11538;48.884;8.696;2023-05-13T04:05:47;10.90;99.90
22742;DHT22;11538;48.884;8.696;2023-05-13T04:08:14;10.90;99.90
22742;DHT22;11538;48.884;8.696;2023-05-13T04:10:41;10.80;99.90
22742;DHT22;11538;48.884;8.696;2023-05-13T04:13:08;10.80;99.90
22742;DHT22;11538;48.884;8.696;2023-05-13T04:15:35;10.80;99.90
22742;DHT22;11538;48.884;8.696;2023-05-13T04:18:02;10.80;99.90
22742;DHT22;11538;48.884;8.696;2023-05-13T04:20:29;10.70;99.90
22742;DHT22;11538;48.884;8.696;2023-05-13T04:22:56;10.70;99.90
22742;DHT22;11538;48.884;8.696;2023-05-13T04:25:23;10.60;99.90
22742;DHT22;11538;48.884;8.696;2023-05-13T04:27:50;10.60;99.90
22742;DHT22;11538;48.884;8.696;2023-05-13T04:30:17;10.60;99.90
22742;DHT22;11538;48.884;8.696;2023-05-13T04:32:44;10.60;99.90
22742;DHT22;11538;48.884;8.696;2023-05-13T04:35:11;10.70;99.90
22742;DHT22;11538;48.884;8.696;2023-05-13T04:37:38;10.70;99.90
22742;DHT22;11538;48.884;8.696;2023-05-13T04:40:05;10.70;99.90
22742;DHT22;11538;48.884;8.696;2023-05-13T04:42:33;10.70;99.90
22742;DHT22;11538;48.884;8.696;2023-05-13T04:45:00;10.80;99.90
22742;DHT22;11538;48.884;8.696;2023-05-13T04:47:31;10.80;99.90
22742;DHT22;11538;48.884;8.696;2023-05-13T04:50:00;10.80;99.90
22742;DHT22;11538;48.884;8.696;2023-05-13T04:52:28;10.80;99.90
22742;DHT22;11538;48.884;8.696;2023-05-13T04:54:57;10.80;99.90
22742;DHT22;11538;48.884;8.696;2023-05-13T04:57:24;10.80;99.90
22742;DHT22;11538;48.884;8.696;2023-05-13T04:59:51;10.80;99.90
22742;DHT22;11538;48.884;8.696;2023-05-13T05:02:18;10.90;99.90
22742;DHT22;11538;48.884;8.696;2023-05-13T05:04:46;10.80;99.90
22742;DHT22;11538;48.884;8.696;2023-05-13T05:07:14;10.90;99.90
22742;DHT22;11538;48.884;8.696;2023-05-13T05:09:41;10.90;99.90
22742;DHT22;11538;48.884;8.696;2023-05-13T05:12:11;11.00;99.90
22742;DHT22;11538;48.884;8.696;2023-05-13T05:14:38;11.00;99.90
22742;DHT22;11538;48.884;8.696;2023-05-13T05:17:05;11.00;99.90
22742;DHT22;11538;48.884;8.696;2023-05-13T05:19:36;11.10;99.90
22742;DHT22;11538;48.884;8.696;2023-05-13T05:22:06;11.10;99.90
22742;DHT22;11538;48.884;8.696;2023-05-13T05:24:33;11.10;99.90
22742;DHT22;11538;48.884;8.696;2023-05-13T05:27:02;11.00;99.90
22742;DHT22;11538;48.884;8.696;2023-05-13T05:29:32;11.00;99.90
22742;DHT22;11538;48.884;8.696;2023-05-13T05:31:59;11.10;99.90
22742;DHT22;11538;48.884;8.696;2023-05-13T05:34:29;11.20;99.90
22742;DHT22;11538;48.884;8.696;2023-05-13T05:36:56;11.20;99.90
22742;DHT22;11538;48.884;8.696;2023-05-13T05:39:23;11.30;99.90
22742;DHT22;11538;48.884;8.696;2023-05-13T05:41:51;11.30;99.90
22742;DHT22;11538;48.884;8.696;2023-05-13T05:44:21;11.40;99.90
22742;DHT22;11538;48.884;8.696;2023-05-13T05:46:48;11.40;99.90
22742;DHT22;11538;48.884;8.696;2023-05-13T05:49:15;11.50;99.90
22742;DHT22;11538;48.884;8.696;2023-05-13T05:51:42;11.60;99.90
22742;DHT22;11538;48.884;8.696;2023-05-13T05:54:08;11.60;99.90
22742;DHT22;11538;48.884;8.696;2023-05-13T05:56:35;11.70;99.90
22742;DHT22;11538;48.884;8.696;2023-05-13T05:59:02;11.80;99.90
22742;DHT22;11538;48.884;8.696;2023-05-13T06:01:29;11.90;99.90
22742;DHT22;11538;48.884;8.696;2023-05-13T06:04:02;11.90;99.90
22742;DHT22;11538;48.884;8.696;2023-05-13T06:06:30;12.00;99.90
22742;DHT22;11538;48.884;8.696;2023-05-13T06:08:57;12.10;99.90
22742;DHT22;11538;48.884;8.696;2023-05-13T06:11:24;12.20;99.90
22742;DHT22;11538;48.884;8.696;2023-05-13T06:13:52;12.20;99.90
22742;DHT22;11538;48.884;8.696;2023-05-13T06:16:19;12.30;99.90
22742;DHT22;11538;48.884;8.696;2023-05-13T06:18:46;12.30;99.90
22742;DHT22;11538;48.884;8.696;2023-05-13T06:21:13;12.50;99.90
22742;DHT22;11538;48.884;8.696;2023-05-13T06:23:40;12.50;99.90
22742;DHT22;11538;48.884;8.696;2023-05-13T06:26:07;12.60;99.90
22742;DHT22;11538;48.884;8.696;2023-05-13T06:28:36;12.60;99.90
22742;DHT22;11538;48.884;8.696;2023-05-13T06:31:02;12.80;99.90
22742;DHT22;11538;48.884;8.696;2023-05-13T06:33:29;12.80;99.90
22742;DHT22;11538;48.884;8.696;2023-05-13T06:35:56;12.90;99.90
22742;DHT22;11538;48.884;8.696;2023-05-13T06:38:23;13.00;99.90
22742;DHT22;11538;48.884;8.696;2023-05-13T06:40:50;13.00;99.90
22742;DHT22;11538;48.884;8.696;2023-05-13T06:43:17;13.10;99.90
22742;DHT22;11538;48.884;8.696;2023-05-13T06:45:44;13.20;99.90
22742;DHT22;11538;48.884;8.696;2023-05-13T06:48:12;13.20;99.90
22742;DHT22;11538;48.884;8.696;2023-05-13T06:50:39;13.30;99.90
22742;DHT22;11538;48.884;8.696;2023-05-13T06:53:07;13.30;99.90
22742;DHT22;11538;48.884;8.696;2023-05-13T06:55:35;13.40;99.90
22742;DHT22;11538;48.884;8.696;2023-05-13T06:58:07;13.50;99.90
22742;DHT22;11538;48.884;8.696;2023-05-13T07:00:37;13.50;99.90
22742;DHT22;11538;48.884;8.696;2023-05-13T07:03:06;13.60;99.90
22742;DHT22;11538;48.884;8.696;2023-05-13T07:05:33;13.70;99.90
22742;DHT22;11538;48.884;8.696;2023-05-13T07:08:02;13.70;99.90
22742;DHT22;11538;48.884;8.696;2023-05-13T07:10:33;13.70;99.90
22742;DHT22;11538;48.884;8.696;2023-05-13T07:13:01;13.70;99.90
22742;DHT22;11538;48.884;8.696;2023-05-13T07:15:28;13.70;99.90
22742;DHT22;11538;48.884;8.696;2023-05-13T07:17:55;13.80;99.90
22742;DHT22;11538;48.884;8.696;2023-05-13T07:20:22;13.80;99.90
22742;DHT22;11538;48.884;8.696;2023-05-13T07:22:49;13.80;99.90
22742;DHT22;11538;48.884;8.696;2023-05-13T07:25:17;13.80;99.90
22742;DHT22;11538;48.884;8.696;2023-05-13T07:27:44;13.80;99.90
22742;DHT22;11538;48.884;8.696;2023-05-13T07:30:11;13.90;99.90
22742;DHT22;11538;48.884;8.696;2023-05-13T07:32:39;13.90;99.90
22742;DHT22;11538;48.884;8.696;2023-05-13T07:35:07;14.00;99.90
22742;DHT22;11538;48.884;8.696;2023-05-13T07:37:35;14.00;99.90
22742;DHT22;11538;48.884;8.696;2023-05-13T07:40:05;14.10;99.90
22742;DHT22;11538;48.884;8.696;2023-05-13T07:42:33;14.00;99.90
22742;DHT22;11538;48.884;8.696;2023-05-13T07:45:00;14.10;99.90
22742;DHT22;11538;48.884;8.696;2023-05-13T07:47:28;14.20;99.90
22742;DHT22;11538;48.884;8.696;2023-05-13T07:49:56;14.20;99.90
22742;DHT22;11538;48.884;8.696;2023-05-13T07:52:24;14.20;99.90
22742;DHT22;11538;48.884;8.696;2023-05-13T07:54:51;14.20;99.90
22742;DHT22;11538;48.884;8.696;2023-05-13T07:57:18;14.30;99.90
22742;DHT22;11538;48.884;8.696;2023-05-13T07:59:44;14.30;99.90
22742;DHT22;11538;48.884;8.696;2023-05-13T08:02:11;14.40;99.90
22742;DHT22;11538;48.884;8.696;2023-05-13T08:04:38;14.40;99.90
22742;DHT22;11538;48.884;8.696;2023-05-13T08:07:05;14.40;99.90
22742;DHT22;11538;48.884;8.696;2023-05-13T08:09:35;14.30;99.90
22742;DHT22;11538;48.884;8.696;2023-05-13T08:12:01;14.40;99.90
22742;DHT22;11538;48.884;8.696;2023-05-13T08:14:28;14.40;99.90
22742;DHT22;11538;48.884;8.696;2023-05-13T08:16:55;14.40;99.90
22742;DHT22;11538;48.884;8.696;2023-05-13T08:19:22;14.40;99.90
22742;DHT22;11538;48.884;8.696;2023-05-13T08:21:49;14.40;99.90
22742;DHT22;11538;48.884;8.696;2023-05-13T08:24:16;14.50;99.90
22742;DHT22;11538;48.884;8.696;2023-05-13T08:26:42;14.50;99.90
22742;DHT22;11538;48.884;8.696;2023-05-13T08:29:09;14.50;99.90
22742;DHT22;11538;48.884;8.696;2023-05-13T08:31:41;14.50;99.90
22742;DHT22;11538;48.884;8.696;2023-05-13T08:34:08;14.50;99.90
22742;DHT22;11538;48.884;8.696;2023-05-13T08:36:35;14.50;99.90
22742;DHT22;11538;48.884;8.696;2023-05-13T08:39:02;14.50;99.90
22742;DHT22;11538;48.884;8.696;2023-05-13T08:41:29;14.50;99.90
22742;DHT22;11538;48.884;8.696;2023-05-13T08:43:59;14.50;99.90
22742;DHT22;11538;48.884;8.696;2023-05-13T08:46:29;14.40;99.90
22742;DHT22;11538;48.884;8.696;2023-05-13T08:48:59;14.50;99.90
22742;DHT22;11538;48.884;8.696;2023-05-13T08:51:27;14.50;99.90
22742;DHT22;11538;48.884;8.696;2023-05-13T08:53:54;14.50;99.90
22742;DHT22;11538;48.884;8.696;2023-05-13T08:56:21;14.50;99.90
22742;DHT22;11538;48.884;8.696;2023-05-13T08:58:51;14.50;99.90
22742;DHT22;11538;48.884;8.696;2023-05-13T09:01:18;14.60;99.90
22742;DHT22;11538;48.884;8.696;2023-05-13T09:03:54;14.60;99.90
22742;DHT22;11538;48.884;8.696;2023-05-13T09:06:25;14.70;99.90
22742;DHT22;11538;48.884;8.696;2023-05-13T09:08:53;14.70;99.90
22742;DHT22;11538;48.884;8.696;2023-05-13T09:11:21;14.70;99.90
22742;DHT22;11538;48.884;8.696;2023-05-13T09:13:59;14.80;99.90
22742;DHT22;11538;48.884;8.696;2023-05-13T09:16:28;14.80;99.90
22742;DHT22;11538;48.884;8.696;2023-05-13T09:18:57;14.80;99.90
22742;DHT22;11538;48.884;8.696;2023-05-13T09:21:30;14.80;99.90
22742;DHT22;11538;48.884;8.696;2023-05-13T09:24:11;14.90;99.90
22742;DHT22;11538;48.884;8.696;2023-05-13T09:26:44;14.90;99.90
22742;DHT22;11538;48.884;8.696;2023-05-13T09:34:33;15.20;99.90
22742;DHT22;11538;48.884;8.696;2023-05-13T09:37:07;15.20;99.90
22742;DHT22;11538;48.884;8.696;2023-05-13T09:39:39;15.20;99.90
22742;DHT22;11538;48.884;8.696;2023-05-13T09:42:17;15.30;99.90
22742;DHT22;11538;48.884;8.696;2023-05-13T09:44:45;15.30;99.90
22742;DHT22;11538;48.884;8.696;2023-05-13T09:47:13;15.40;99.90
22742;DHT22;11538;48.884;8.696;2023-05-13T09:49:42;15.40;99.90
22742;DHT22;11538;48.884;8.696;2023-05-13T09:52:10;15.50;99.90
22742;DHT22;11538;48.884;8.696;2023-05-13T09:54:39;15.50;99.90
22742;DHT22;11538;48.884;8.696;2023-05-13T09:57:05;15.50;99.90
22742;DHT22;11538;48.884;8.696;2023-05-13T09:59:33;15.60;99.90
22742;DHT22;11538;48.884;8.696;2023-05-13T10:02:04;15.60;99.90
22742;DHT22;11538;48.884;8.696;2023-05-13T10:04:32;15.60;99.90
22742;DHT22;11538;48.884;8.696;2023-05-13T10:07:02;15.60;99.90
22742;DHT22;11538;48.884;8.696;2023-05-13T10:09:35;15.70;99.90
22742;DHT22;11538;48.884;8.696;2023-05-13T10:12:06;15.70;99.90
22742;DHT22;11538;48.884;8.696;2023-05-13T10:14:36;15.70;99.90
22742;DHT22;11538;48.884;8.696;2023-05-13T10:17:07;15.70;99.90
22742;DHT22;11538;48.884;8.696;2023-05-13T10:19:35;15.70;99.90
22742;DHT22;11538;48.884;8.696;2023-05-13T10:22:03;15.70;99.90
22742;DHT22;11538;48.884;8.696;2023-05-13T10:24:31;15.70;99.90
22742;DHT22;11538;48.884;8.696;2023-05-13T10:26:59;15.70;99.90
22742;DHT22;11538;48.884;8.696;2023-05-13T10:29:28;15.80;99.90
22742;DHT22;11538;48.884;8.696;2023-05-13T10:31:56;15.90;99.90
22742;DHT22;11538;48.884;8.696;2023-05-13T10:34:25;16.00;99.90
22742;DHT22;11538;48.884;8.696;2023-05-13T10:43:42;16.30;99.90
22742;DHT22;11538;48.884;8.696;2023-05-13T10:46:12;16.50;99.90
22742;DHT22;11538;48.884;8.696;2023-05-13T10:48:41;16.60;99.90
22742;DHT22;11538;48.884;8.696;2023-05-13T10:51:17;16.70;99.90
22742;DHT22;11538;48.884;8.696;2023-05-13T10:53:54;16.80;99.90
22742;DHT22;11538;48.884;8.696;2023-05-13T10:56:23;16.90;99.90
22742;DHT22;11538;48.884;8.696;2023-05-13T10:59:03;17.00;99.90
22742;DHT22;11538;48.884;8.696;2023-05-13T11:01:35;17.10;99.90
22742;DHT22;11538;48.884;8.696;2023-05-13T11:04:14;17.10;99.90
22742;DHT22;11538;48.884;8.696;2023-05-13T11:06:43;17.20;99.90
22742;DHT22;11538;48.884;8.696;2023-05-13T11:09:28;17.20;99.90
22742;DHT22;11538;48.884;8.696;2023-05-13T11:11:57;17.30;99.90
22742;DHT22;11538;48.884;8.696;2023-05-13T11:14:26;17.40;99.90
22742;DHT22;11538;48.884;8.696;2023-05-13T11:19:36;17.60;99.90
22742;DHT22;11538;48.884;8.696;2023-05-13T11:22:12;17.70;99.90
22742;DHT22;11538;48.884;8.696;2023-05-13T11:24:48;17.70;99.90
22742;DHT22;11538;48.884;8.696;2023-05-13T11:27:32;17.80;99.90
22742;DHT22;11538;48.884;8.696;2023-05-13T11:30:21;17.80;99.90
22742;DHT22;11538;48.884;8.696;2023-05-13T11:35:24;17.80;99.90
22742;DHT22;11538;48.884;8.696;2023-05-13T11:37:58;17.80;99.90
22742;DHT22;11538;48.884;8.696;2023-05-13T11:40:30;17.80;99.90
22742;DHT22;11538;48.884;8.696;2023-05-13T11:42:59;17.70;99.90
22742;DHT22;11538;48.884;8.696;2023-05-13T11:45:28;17.60;99.90
22742;DHT22;11538;48.884;8.696;2023-05-13T11:47:56;17.50;99.90
22742;DHT22;11538;48.884;8.696;2023-05-13T11:50:26;17.40;99.90
22742;DHT22;11538;48.884;8.696;2023-05-13T11:52:59;17.30;99.90
22742;DHT22;11538;48.884;8.696;2023-05-13T11:55:32;17.20;99.90
22742;DHT22;11538;48.884;8.696;2023-05-13T11:58:03;17.20;99.90
22742;DHT22;11538;48.884;8.696;2023-05-13T12:00:32;17.20;99.90
22742;DHT22;11538;48.884;8.696;2023-05-13T12:03:04;17.20;99.90
22742;DHT22;11538;48.884;8.696;2023-05-13T12:05:35;17.20;99.90
22742;DHT22;11538;48.884;8.696;2023-05-13T12:08:02;17.20;99.90
22742;DHT22;11538;48.884;8.696;2023-05-13T12:10:30;17.20;99.90
22742;DHT22;11538;48.884;8.696;2023-05-13T12:12:57;17.20;99.90
22742;DHT22;11538;48.884;8.696;2023-05-13T12:15:24;17.20;99.90
22742;DHT22;11538;48.884;8.696;2023-05-13T12:17:52;17.20;99.90
22742;DHT22;11538;48.884;8.696;2023-05-13T12:20:21;17.10;99.90
22742;DHT22;11538;48.884;8.696;2023-05-13T12:22:51;17.10;99.90
22742;DHT22;11538;48.884;8.696;2023-05-13T12:25:38;17.10;99.90
22742;DHT22;11538;48.884;8.696;2023-05-13T12:28:24;17.10;99.90
22742;DHT22;11538;48.884;8.696;2023-05-13T12:31:00;17.30;99.90
22742;DHT22;11538;48.884;8.696;2023-05-13T12:33:39;17.50;99.90
22742;DHT22;11538;48.884;8.696;2023-05-13T12:36:18;17.60;99.90
22742;DHT22;11538;48.884;8.696;2023-05-13T12:41:38;17.60;99.90
22742;DHT22;11538;48.884;8.696;2023-05-13T12:44:14;17.50;99.90
22742;DHT22;11538;48.884;8.696;2023-05-13T12:46:52;17.50;99.90
22742;DHT22;11538;48.884;8.696;2023-05-13T12:49:23;17.40;99.90
22742;DHT22;11538;48.884;8.696;2023-05-13T12:51:50;17.30;99.90
22742;DHT22;11538;48.884;8.696;2023-05-13T12:54:17;17.10;99.90
22742;DHT22;11538;48.884;8.696;2023-05-13T12:56:44;17.00;99.90
22742;DHT22;11538;48.884;8.696;2023-05-13T12:59:11;17.00;99.90
22742;DHT22;11538;48.884;8.696;2023-05-13T13:01:39;17.00;99.90
22742;DHT22;11538;48.884;8.696;2023-05-13T13:04:08;17.00;99.90
22742;DHT22;11538;48.884;8.696;2023-05-13T13:06:35;17.20;99.90
22742;DHT22;11538;48.884;8.696;2023-05-13T13:09:02;17.40;99.90
22742;DHT22;11538;48.884;8.696;2023-05-13T13:11:29;17.70;99.90
22742;DHT22;11538;48.884;8.696;2023-05-13T13:13:56;18.00;99.90
22742;DHT22;11538;48.884;8.696;2023-05-13T13:16:23;18.10;99.90
22742;DHT22;11538;48.884;8.696;2023-05-13T13:18:50;18.30;99.90
22742;DHT22;11538;48.884;8.696;2023-05-13T13:21:21;18.40;99.90
22742;DHT22;11538;48.884;8.696;2023-05-13T13:23:48;18.50;99.90
22742;DHT22;11538;48.884;8.696;2023-05-13T13:26:15;18.40;99.90
22742;DHT22;11538;48.884;8.696;2023-05-13T13:28:41;18.40;99.90
22742;DHT22;11538;48.884;8.696;2023-05-13T13:31:08;18.40;99.90
22742;DHT22;11538;48.884;8.696;2023-05-13T13:33:37;18.30;99.90
22742;DHT22;11538;48.884;8.696;2023-05-13T13:36:04;18.30;99.90
22742;DHT22;11538;48.884;8.696;2023-05-13T13:38:31;18.30;99.90
22742;DHT22;11538;48.884;8.696;2023-05-13T13:40:58;18.30;99.90
22742;DHT22;11538;48.884;8.696;2023-05-13T13:43:25;18.30;99.90
22742;DHT22;11538;48.884;8.696;2023-05-13T13:45:52;18.30;99.90
22742;DHT22;11538;48.884;8.696;2023-05-13T13:48:20;18.30;99.90
22742;DHT22;11538;48.884;8.696;2023-05-13T13:50:47;18.30;99.90
22742;DHT22;11538;48.884;8.696;2023-05-13T13:53:16;18.30;99.90
22742;DHT22;11538;48.884;8.696;2023-05-13T13:55:43;18.30;99.90
22742;DHT22;11538;48.884;8.696;2023-05-13T13:58:09;18.40;99.90
22742;DHT22;11538;48.884;8.696;2023-05-13T14:00:36;18.40;99.90
22742;DHT22;11538;48.884;8.696;2023-05-13T14:03:03;18.50;99.90
22742;DHT22;11538;48.884;8.696;2023-05-13T14:05:30;18.80;99.90
22742;DHT22;11538;48.884;8.696;2023-05-13T14:07:57;19.20;99.90
22742;DHT22;11538;48.884;8.696;2023-05-13T14:10:24;19.70;99.90
22742;DHT22;11538;48.884;8.696;2023-05-13T14:12:51;20.00;99.90
22742;DHT22;11538;48.884;8.696;2023-05-13T14:15:18;20.10;99.90
22742;DHT22;11538;48.884;8.696;2023-05-13T14:17:45;20.20;99.90
22742;DHT22;11538;48.884;8.696;2023-05-13T14:20:12;20.10;99.90
22742;DHT22;11538;48.884;8.696;2023-05-13T14:22:39;20.00;99.90
22742;DHT22;11538;48.884;8.696;2023-05-13T14:25:06;19.70;99.90
22742;DHT22;11538;48.884;8.696;2023-05-13T14:27:35;19.50;99.90
22742;DHT22;11538;48.884;8.696;2023-05-13T14:30:03;19.30;99.90
22742;DHT22;11538;48.884;8.696;2023-05-13T14:32:31;19.10;99.90
22742;DHT22;11538;48.884;8.696;2023-05-13T14:34:58;18.90;99.90
22742;DHT22;11538;48.884;8.696;2023-05-13T14:37:26;18.70;99.90
22742;DHT22;11538;48.884;8.696;2023-05-13T14:39:52;18.60;99.90
22742;DHT22;11538;48.884;8.696;2023-05-13T14:42:19;18.50;99.90
22742;DHT22;11538;48.884;8.696;2023-05-13T14:44:47;18.40;99.90
22742;DHT22;11538;48.884;8.696;2023-05-13T14:47:19;18.30;99.90
22742;DHT22;11538;48.884;8.696;2023-05-13T14:49:46;18.30;99.90
22742;DHT22;11538;48.884;8.696;2023-05-13T14:52:13;18.40;99.90
22742;DHT22;11538;48.884;8.696;2023-05-13T14:54:41;18.80;99.90
22742;DHT22;11538;48.884;8.696;2023-05-13T14:57:08;19.20;99.90
22742;DHT22;11538;48.884;8.696;2023-05-13T14:59:35;19.70;99.90
22742;DHT22;11538;48.884;8.696;2023-05-13T15:02:02;20.10;99.90
22742;DHT22;11538;48.884;8.696;2023-05-13T15:04:29;20.50;99.90
22742;DHT22;11538;48.884;8.696;2023-05-13T15:06:57;20.80;99.90
22742;DHT22;11538;48.884;8.696;2023-05-13T15:09:25;21.10;99.90
22742;DHT22;11538;48.884;8.696;2023-05-13T15:11:52;21.40;99.90
22742;DHT22;11538;48.884;8.696;2023-05-13T15:14:21;21.70;99.90
22742;DHT22;11538;48.884;8.696;2023-05-13T15:16:51;21.90;99.90
22742;DHT22;11538;48.884;8.696;2023-05-13T15:19:19;21.70;99.90
22742;DHT22;11538;48.884;8.696;2023-05-13T15:21:45;21.50;99.90
22742;DHT22;11538;48.884;8.696;2023-05-13T15:24:12;21.30;99.90
22742;DHT22;11538;48.884;8.696;2023-05-13T15:26:39;21.00;99.90
22742;DHT22;11538;48.884;8.696;2023-05-13T15:29:06;20.80;99.90
22742;DHT22;11538;48.884;8.696;2023-05-13T15:31:33;20.50;99.90
22742;DHT22;11538;48.884;8.696;2023-05-13T15:34:01;20.30;99.90
22742;DHT22;11538;48.884;8.696;2023-05-13T15:36:28;20.10;99.90
22742;DHT22;11538;48.884;8.696;2023-05-13T15:38:55;20.10;99.90
22742;DHT22;11538;48.884;8.696;2023-05-13T15:41:22;20.10;99.90
22742;DHT22;11538;48.884;8.696;2023-05-13T15:43:49;20.20;99.90
22742;DHT22;11538;48.884;8.696;2023-05-13T15:46:15;20.10;99.90
22742;DHT22;11538;48.884;8.696;2023-05-13T15:48:42;20.00;99.90
22742;DHT22;11538;48.884;8.696;2023-05-13T15:51:09;20.00;99.90
22742;DHT22;11538;48.884;8.696;2023-05-13T15:53:43;19.90;99.90
22742;DHT22;11538;48.884;8.696;2023-05-13T15:56:11;19.80;99.90
22742;DHT22;11538;48.884;8.696;2023-05-13T15:58:37;19.70;99.90
22742;DHT22;11538;48.884;8.696;2023-05-13T16:01:05;19.60;99.90
22742;DHT22;11538;48.884;8.696;2023-05-13T16:03:32;19.50;99.90
22742;DHT22;11538;48.884;8.696;2023-05-13T16:06:00;19.40;99.90
22742;DHT22;11538;48.884;8.696;2023-05-13T16:08:27;19.20;99.90